createdAt,value
2022-11-12T00:02:27.687Z,0
2022-11-12T00:07:35.602Z,0
2022-11-12T00:12:43.705Z,0
2022-11-12T00:17:51.678Z,0
2022-11-12T00:22:59.918Z,0
2022-11-12T00:28:08.168Z,0
2022-11-12T00:33:16.433Z,0
2022-11-12T00:38:24.665Z,0
2022-11-12T00:43:32.937Z,0
2022-11-12T00:48:41.224Z,0
2022-11-12T00:53:49.448Z,0
2022-11-12T00:58:57.713Z,0
2022-11-12T01:04:05.988Z,0
2022-11-12T01:09:14.232Z,0
2022-11-12T01:14:22.525Z,0
2022-11-12T01:19:30.763Z,0
2022-11-12T01:24:39.002Z,0
2022-11-12T01:29:47.906Z,0
2022-11-12T01:34:56.681Z,0
2022-11-12T01:40:05.481Z,0
2022-11-12T01:45:14.388Z,0
2022-11-12T01:50:23.148Z,0
2022-11-12T01:55:31.975Z,0
2022-11-12T02:00:40.838Z,0
2022-11-12T02:05:49.715Z,0
2022-11-12T02:10:58.590Z,0
2022-11-12T02:16:07.443Z,0
2022-11-12T02:21:16.399Z,0
2022-11-12T02:26:25.206Z,0
2022-11-12T02:31:34.073Z,0
2022-11-12T02:36:43.981Z,0
2022-11-12T02:41:51.955Z,0
2022-11-12T02:46:59.877Z,0
2022-11-12T02:52:07.760Z,0
2022-11-12T02:57:15.796Z,0
2022-11-12T03:02:23.665Z,0
2022-11-12T03:07:31.611Z,0
2022-11-12T03:12:39.630Z,0
2022-11-12T03:17:47.478Z,0
2022-11-12T03:22:55.411Z,0
2022-11-12T03:28:03.349Z,0
2022-11-12T03:33:11.281Z,0
2022-11-12T03:38:19.230Z,0
2022-11-12T03:43:27.222Z,0
2022-11-12T03:48:35.115Z,0
2022-11-12T03:53:43.078Z,0
2022-11-12T03:58:51.045Z,0
2022-11-12T04:03:58.996Z,0
2022-11-12T04:09:06.959Z,0
2022-11-12T04:14:14.956Z,0
2022-11-12T04:19:22.915Z,0
2022-11-12T04:24:30.877Z,0
2022-11-12T04:34:46.791Z,0
2022-11-12T04:39:54.729Z,0
2022-11-12T04:45:02.714Z,0
2022-11-12T04:50:10.815Z,0
2022-11-12T04:55:18.936Z,0
2022-11-12T05:00:27.055Z,0
2022-11-12T05:05:35.163Z,0
2022-11-12T05:10:43.286Z,0
2022-11-12T05:15:51.427Z,0
2022-11-12T05:20:59.517Z,0
2022-11-12T05:26:07.600Z,0
2022-11-12T05:31:15.721Z,0
2022-11-12T05:36:23.857Z,0
2022-11-12T05:41:31.930Z,0
2022-11-12T05:46:40.065Z,1
2022-11-12T05:51:48.117Z,1
2022-11-12T05:56:56.485Z,7
2022-11-12T06:02:04.771Z,2
2022-11-12T06:07:13.102Z,5
2022-11-12T06:12:21.401Z,10
2022-11-12T06:17:29.722Z,17
2022-11-12T06:22:38.039Z,69
2022-11-12T06:27:46.361Z,112
2022-11-12T06:32:54.761Z,191
2022-11-12T06:38:02.979Z,341
2022-11-12T06:43:11.284Z,512
2022-11-12T06:48:19.643Z,685
2022-11-12T06:53:27.883Z,894
2022-11-12T06:58:36.231Z,1131
2022-11-12T07:03:45.181Z,1329
2022-11-12T07:08:54.106Z,1611
2022-11-12T07:14:02.935Z,1850
2022-11-12T07:19:11.822Z,2060
2022-11-12T07:24:20.606Z,2215
2022-11-12T07:29:29.446Z,2311
2022-11-12T07:34:38.283Z,2471
2022-11-12T07:39:47.087Z,2712
2022-11-12T07:44:55.856Z,2908
2022-11-12T07:50:04.589Z,2978
2022-11-12T07:55:13.292Z,3118
2022-11-12T08:00:22.050Z,3204
2022-11-12T08:05:30.727Z,3430
2022-11-12T08:10:40.356Z,3557
2022-11-12T08:15:48.020Z,3724
2022-11-12T08:20:55.516Z,3672
2022-11-12T08:26:02.971Z,3826
2022-11-12T08:31:10.447Z,3834
2022-11-12T08:36:17.979Z,3977
2022-11-12T08:41:25.253Z,4101
2022-11-12T08:46:32.617Z,4335
2022-11-12T08:51:39.922Z,4027
2022-11-12T08:56:47.244Z,6268
2022-11-12T09:01:54.477Z,5387
2022-11-12T09:07:01.724Z,4152
2022-11-12T09:12:08.925Z,4213
2022-11-12T09:17:16.123Z,4217
2022-11-12T09:22:23.338Z,4160
2022-11-12T09:27:30.558Z,4102
2022-11-12T09:32:37.811Z,4169
2022-11-12T09:37:45.060Z,4532
2022-11-12T09:42:52.322Z,4605
2022-11-12T09:47:59.577Z,4428
2022-11-12T09:53:06.763Z,4399
2022-11-12T09:58:13.956Z,4484
2022-11-12T10:03:21.132Z,4593
2022-11-12T10:08:28.341Z,4412
2022-11-12T10:13:35.526Z,4241
2022-11-12T10:18:42.719Z,4103
2022-11-12T10:23:49.912Z,4209
2022-11-12T10:28:57.152Z,4138
2022-11-12T10:34:04.393Z,4018
2022-11-12T10:39:11.682Z,3960
2022-11-12T10:44:18.890Z,4312
2022-11-12T10:49:26.131Z,4431
2022-11-12T10:54:33.283Z,4255
2022-11-12T10:59:40.451Z,5007
2022-11-12T11:04:47.594Z,4625
2022-11-12T11:09:54.727Z,4760
2022-11-12T11:15:01.794Z,7164
2022-11-12T11:20:08.832Z,6527
2022-11-12T11:25:15.936Z,5871
2022-11-12T11:30:23.046Z,5680
2022-11-12T11:35:30.231Z,5391
2022-11-12T11:40:37.441Z,5610
2022-11-12T11:45:44.614Z,2206
2022-11-12T11:50:51.779Z,5581
2022-11-12T11:55:58.905Z,10193
2022-11-12T12:01:05.998Z,9936
2022-11-12T12:06:13.151Z,7305
2022-11-12T12:11:20.255Z,6528
2022-11-12T12:16:27.396Z,4867
2022-11-12T12:21:34.519Z,6770
2022-11-12T12:26:41.631Z,4922
2022-11-12T12:31:48.783Z,5451
2022-11-12T12:36:56.132Z,5502
2022-11-12T12:42:03.542Z,4113
2022-11-12T12:47:10.764Z,5406
2022-11-12T12:52:18.074Z,4667
2022-11-12T12:57:25.393Z,4904
2022-11-12T13:02:32.687Z,5004
2022-11-12T13:07:40.012Z,4847
2022-11-12T13:12:47.298Z,5052
2022-11-12T13:17:54.590Z,5249
2022-11-12T13:23:01.863Z,4073
2022-11-12T13:28:09.131Z,4482
2022-11-12T13:33:16.435Z,3143
2022-11-12T13:38:23.782Z,3814
2022-11-12T13:43:31.839Z,3639
2022-11-12T13:48:38.412Z,3975
2022-11-12T13:53:45.436Z,4125
2022-11-12T13:58:52.540Z,4003
2022-11-12T14:03:59.498Z,3294
2022-11-12T14:09:06.523Z,2589
2022-11-12T14:14:13.607Z,2382
2022-11-12T14:19:20.800Z,2383
2022-11-12T14:24:27.940Z,2296
2022-11-12T14:29:35.154Z,2100
2022-11-12T14:34:42.278Z,1892
2022-11-12T14:39:49.528Z,1695
2022-11-12T14:44:56.873Z,1528
2022-11-12T14:50:04.174Z,1353
2022-11-12T14:55:11.635Z,1173
2022-11-12T15:00:19.007Z,1010
2022-11-12T15:05:26.438Z,862
2022-11-12T15:10:33.925Z,706
2022-11-12T15:15:41.446Z,545
2022-11-12T15:20:49.045Z,394
2022-11-12T15:25:56.555Z,275
2022-11-12T15:31:04.234Z,181
2022-11-12T15:36:11.862Z,116
2022-11-12T15:41:19.472Z,66
2022-11-12T15:46:27.067Z,38
2022-11-12T15:51:34.748Z,20
2022-11-12T15:56:42.535Z,7
2022-11-12T16:01:50.347Z,3
2022-11-12T16:06:58.160Z,2
2022-11-12T16:12:06.030Z,0
2022-11-12T16:17:13.894Z,0
2022-11-12T16:22:21.827Z,0
2022-11-12T16:27:29.738Z,0
2022-11-12T16:32:37.669Z,0
2022-11-12T16:37:45.611Z,0
2022-11-12T16:42:53.539Z,0
2022-11-12T16:48:01.515Z,0
2022-11-12T16:53:09.418Z,0
2022-11-12T16:58:17.256Z,0
2022-11-12T17:03:25.464Z,0
2022-11-12T17:08:33.578Z,0
2022-11-12T17:13:41.794Z,0
2022-11-12T17:18:49.915Z,0
2022-11-12T17:23:58.059Z,0
2022-11-12T17:29:06.230Z,0
2022-11-12T17:34:14.393Z,0
2022-11-12T17:39:22.546Z,0
2022-11-12T17:44:30.746Z,0
2022-11-12T17:49:38.938Z,0
2022-11-12T17:54:47.107Z,0
2022-11-12T17:59:55.310Z,0
2022-11-12T18:10:12.354Z,0
2022-11-12T18:15:21.146Z,0
2022-11-12T18:25:38.773Z,0
2022-11-12T18:30:47.621Z,0
2022-11-12T18:35:56.385Z,0
2022-11-12T18:41:05.205Z,0
2022-11-12T18:46:14.074Z,0
2022-11-12T18:51:22.849Z,0
2022-11-12T18:56:31.709Z,0
2022-11-12T19:01:40.528Z,0
2022-11-12T19:06:49.403Z,0
2022-11-12T19:11:58.244Z,0
2022-11-12T19:17:08.106Z,0
2022-11-12T19:22:18.004Z,0
2022-11-12T19:27:25.849Z,0
2022-11-12T19:32:33.655Z,0
2022-11-12T19:37:41.428Z,0
2022-11-12T19:42:49.224Z,0
2022-11-12T19:47:56.985Z,0
2022-11-12T19:53:04.764Z,0
2022-11-12T19:58:12.563Z,0
2022-11-12T20:03:20.389Z,0
2022-11-12T20:08:28.063Z,0
2022-11-12T20:13:35.776Z,0
2022-11-12T20:18:43.633Z,0
2022-11-12T20:23:51.406Z,0
2022-11-12T20:28:59.132Z,0
2022-11-12T20:34:06.875Z,0
2022-11-12T20:39:14.665Z,0
2022-11-12T20:44:22.451Z,0
2022-11-12T20:49:30.213Z,0
2022-11-12T20:54:38.007Z,0
2022-11-12T20:59:45.743Z,0
2022-11-12T21:04:53.561Z,0
2022-11-12T21:10:01.273Z,0
2022-11-12T21:15:09.023Z,0
2022-11-12T21:20:16.776Z,0
2022-11-12T21:25:24.533Z,0
2022-11-12T21:30:32.303Z,0
2022-11-12T21:35:40.132Z,0
2022-11-12T21:40:48.004Z,0
2022-11-12T21:45:55.851Z,0
2022-11-12T21:51:03.702Z,0
2022-11-12T21:56:11.572Z,0
2022-11-12T22:01:19.467Z,0
2022-11-12T22:06:27.409Z,0
2022-11-12T22:11:35.285Z,0
2022-11-12T22:16:42.896Z,0
2022-11-12T22:21:50.792Z,0
2022-11-12T22:26:58.543Z,0
2022-11-12T22:32:06.359Z,0
2022-11-12T22:37:14.112Z,0
2022-11-12T22:42:22.076Z,0
2022-11-12T22:47:29.911Z,0
2022-11-12T22:52:37.798Z,0
2022-11-12T22:57:45.681Z,0
2022-11-12T23:02:53.507Z,0
2022-11-12T23:08:01.325Z,0
2022-11-12T23:13:09.141Z,0
2022-11-12T23:18:16.933Z,0
2022-11-12T23:23:24.858Z,0
2022-11-12T23:28:32.606Z,0
2022-11-12T23:33:40.328Z,0
2022-11-12T23:38:48.208Z,0
2022-11-12T23:43:55.996Z,0
2022-11-12T23:49:03.908Z,0
2022-11-12T23:54:11.899Z,0
2022-11-12T23:59:19.904Z,0
